Time;durP1;ratioP1;P1;durP2;ratioP2;P2;SDS_P1;SDS_P2;PMS_P1;PMS_P2;Temp;Humidity;BMP_temperature;BMP_pressure;BME280_temperature;BME280_humidity;BME280_pressure;Samples;Min_cycle;Max_cycle;Signal;HPM_P1;HPM_P2
2022/08/24 00:01:31;;;;;;;17.52;6.72;;;;;;;;;;1774090;80;21038;-67
2022/08/24 00:03:58;;;;;;;10.70;6.30;;;;;;;;;;1782625;79;21026;-66
2022/08/24 00:06:26;;;;;;;16.05;6.33;;;;;;;;;;1771289;80;21058;-66
2022/08/24 00:08:54;;;;;;;9.70;5.85;;;;;;;;;;1781264;80;21046;-66
2022/08/24 00:11:23;;;;;;;11.12;6.40;;;;;;;;;;1780909;80;21071;-67
2022/08/24 00:13:50;;;;;;;14.33;6.42;;;;;;;;;;1773716;79;21046;-67
2022/08/24 00:16:18;;;;;;;13.72;6.25;;;;;;;;;;1777094;80;21027;-67
2022/08/24 00:18:47;;;;;;;18.42;6.70;;;;;;;;;;1782471;80;20978;-67
2022/08/24 00:21:14;;;;;;;16.87;6.00;;;;;;;;;;1779606;80;21004;-67
2022/08/24 00:23:40;;;;;;;17.12;6.20;;;;;;;;;;1775012;80;21012;-67
2022/08/24 00:26:07;;;;;;;17.17;5.92;;;;;;;;;;1773479;80;21526;-66
2022/08/24 00:28:34;;;;;;;14.65;5.95;;;;;;;;;;1771478;80;21031;-66
2022/08/24 00:31:02;;;;;;;18.65;6.42;;;;;;;;;;1771302;80;21511;-66
2022/08/24 00:33:30;;;;;;;20.60;6.70;;;;;;;;;;1772709;80;21024;-66
2022/08/24 00:35:57;;;;;;;15.53;7.05;;;;;;;;;;1770737;80;20995;-66
2022/08/24 00:38:24;;;;;;;16.52;8.93;;;;;;;;;;1783435;80;21062;-66
2022/08/24 00:40:51;;;;;;;22.87;9.50;;;;;;;;;;1780251;80;21338;-66
2022/08/24 00:43:21;;;;;;;30.75;10.00;;;;;;;;;;1771808;80;21043;-66
2022/08/24 00:46:08;;;;;;;20.00;9.43;;;;;;;;;;1773727;80;21070;-66
2022/08/24 00:48:37;;;;;;;22.30;10.68;;;;;;;;;;1777624;80;21510;-66
2022/08/24 00:51:07;;;;;;;41.68;23.18;;;;;;;;;;1784870;80;21061;-67
2022/08/24 00:53:38;;;;;;;56.08;29.00;;;;;;;;;;1777714;80;21590;-66
2022/08/24 00:56:12;;;;;;;67.82;40.95;;;;;;;;;;1782200;80;21085;-66
2022/08/24 00:58:48;;;;;;;88.75;52.03;;;;;;;;;;1783111;80;21061;-66
2022/08/24 01:01:16;;;;;;;79.65;42.48;;;;;;;;;;1773931;79;21082;-66
2022/08/24 01:03:45;;;;;;;56.70;31.62;;;;;;;;;;1768654;80;21553;-65
2022/08/24 01:06:12;;;;;;;39.18;20.30;;;;;;;;;;1779840;80;21160;-66
2022/08/24 01:08:39;;;;;;;43.58;19.73;;;;;;;;;;1783139;80;21022;-66
2022/08/24 01:11:13;;;;;;;45.70;21.27;;;;;;;;;;1783667;80;21475;-66
2022/08/24 01:13:41;;;;;;;;;;;;;;;;;;1781075;80;21109;-66
2022/08/24 01:16:10;;;;;;;42.40;18.20;;;;;;;;;;1774478;80;20397;-66
2022/08/24 01:18:50;;;;;;;37.78;17.07;;;;;;;;;;1769470;80;21066;-66
2022/08/24 01:21:33;;;;;;;29.23;14.50;;;;;;;;;;1776440;80;21038;-66
2022/08/24 01:24:04;;;;;;;33.70;9.63;;;;;;;;;;1764743;79;21167;-66
2022/08/24 01:26:34;;;;;;;25.02;8.90;;;;;;;;;;1769264;80;21514;-66
2022/08/24 01:29:09;;;;;;;21.68;7.55;;;;;;;;;;1776771;79;21002;-66
2022/08/24 01:31:37;;;;;;;22.00;7.28;;;;;;;;;;1776791;80;21007;-66
2022/08/24 01:34:04;;;;;;;26.85;6.33;;;;;;;;;;1768822;80;21011;-66
2022/08/24 01:36:35;;;;;;;20.90;7.30;;;;;;;;;;1746508;80;21038;-66
2022/08/24 01:39:10;;;;;;;26.90;7.47;;;;;;;;;;1774808;80;21522;-66
2022/08/24 01:41:37;;;;;;;25.12;9.15;;;;;;;;;;1774883;80;21510;-66
2022/08/24 01:44:04;;;;;;;30.92;9.85;;;;;;;;;;1773881;80;21011;-66
2022/08/24 01:46:31;;;;;;;29.23;11.93;;;;;;;;;;1778058;80;21019;-66
2022/08/24 01:48:58;;;;;;;36.08;15.48;;;;;;;;;;1780584;80;21058;-66
2022/08/24 01:51:30;;;;;;;42.85;15.88;;;;;;;;;;1778816;80;21078;-66
2022/08/24 01:54:01;;;;;;;52.53;18.17;;;;;;;;;;1783537;80;21065;-66
2022/08/24 01:56:30;;;;;;;38.63;16.40;;;;;;;;;;1781201;80;21573;-66
2022/08/24 01:58:57;;;;;;;33.55;12.18;;;;;;;;;;1777419;80;21470;-66
2022/08/24 02:01:25;;;;;;;32.00;9.20;;;;;;;;;;1779549;80;21046;-66
2022/08/24 02:03:52;;;;;;;32.28;9.68;;;;;;;;;;1784721;79;21026;-66
2022/08/24 02:06:19;;;;;;;34.05;10.38;;;;;;;;;;1780659;80;21491;-66
2022/08/24 02:08:46;;;;;;;34.53;12.50;;;;;;;;;;1782078;80;21023;-66
2022/08/24 02:11:15;;;;;;;38.33;11.28;;;;;;;;;;1782107;80;21508;-65
2022/08/24 02:13:42;;;;;;;37.23;10.65;;;;;;;;;;1771748;80;21038;-65
2022/08/24 02:16:09;;;;;;;40.10;11.97;;;;;;;;;;1778021;79;21113;-66
2022/08/24 02:18:39;;;;;;;38.35;11.78;;;;;;;;;;1776339;80;21014;-66
2022/08/24 02:21:08;;;;;;;36.58;11.40;;;;;;;;;;1774692;80;21074;-66
2022/08/24 02:23:37;;;;;;;36.55;9.95;;;;;;;;;;1775438;80;21062;-66
2022/08/24 02:26:06;;;;;;;32.00;8.63;;;;;;;;;;1775535;80;21003;-66
2022/08/24 02:28:33;;;;;;;28.73;7.10;;;;;;;;;;1776348;80;21037;-65
2022/08/24 02:31:04;;;;;;;26.02;7.00;;;;;;;;;;1783973;80;21066;-66
2022/08/24 02:33:30;;;;;;;24.27;6.15;;;;;;;;;;1777712;80;21152;-66
2022/08/24 02:35:57;;;;;;;31.42;6.30;;;;;;;;;;1776431;80;21018;-66
2022/08/24 02:38:24;;;;;;;32.25;6.00;;;;;;;;;;1775228;80;21061;-65
2022/08/24 02:40:51;;;;;;;32.63;6.45;;;;;;;;;;1751974;80;20983;-66
2022/08/24 02:43:18;;;;;;;31.95;6.58;;;;;;;;;;1781493;80;21027;-65
2022/08/24 02:45:47;;;;;;;26.30;6.08;;;;;;;;;;1775257;80;21042;-65
2022/08/24 02:48:15;;;;;;;29.87;6.47;;;;;;;;;;1777053;80;21054;-65
2022/08/24 02:50:44;;;;;;;30.08;5.92;;;;;;;;;;1779485;80;21010;-65
2022/08/24 02:53:13;;;;;;;34.63;6.12;;;;;;;;;;1774808;80;21031;-66
2022/08/24 02:55:41;;;;;;;28.52;6.08;;;;;;;;;;1773226;80;20987;-66
2022/08/24 02:58:11;;;;;;;27.93;5.90;;;;;;;;;;1771341;79;21003;-66
2022/08/24 03:00:39;;;;;;;24.15;5.65;;;;;;;;;;1774613;79;21031;-65
2022/08/24 03:03:07;;;;;;;27.07;6.05;;;;;;;;;;1767673;80;21043;-65
2022/08/24 03:05:35;;;;;;;33.48;7.35;;;;;;;;;;1766893;80;21074;-65
2022/08/24 03:08:03;;;;;;;26.07;6.85;;;;;;;;;;1768709;80;21071;-66
2022/08/24 03:10:31;;;;;;;42.60;7.40;;;;;;;;;;1771203;80;21035;-66
2022/08/24 03:13:00;;;;;;;30.62;6.80;;;;;;;;;;1776055;80;21551;-66
2022/08/24 03:15:27;;;;;;;25.27;6.60;;;;;;;;;;1774967;80;21015;-66
2022/08/24 03:17:54;;;;;;;28.38;6.42;;;;;;;;;;1769721;80;21499;-65
2022/08/24 03:20:21;;;;;;;29.40;6.12;;;;;;;;;;1775870;80;21503;-65
2022/08/24 03:22:48;;;;;;;28.50;6.05;;;;;;;;;;1768285;80;21488;-65
2022/08/24 03:25:16;;;;;;;23.57;6.10;;;;;;;;;;1771613;80;21038;-65
2022/08/24 03:27:43;;;;;;;24.15;5.75;;;;;;;;;;1745865;81;21173;-65
2022/08/24 03:30:13;;;;;;;25.32;5.30;;;;;;;;;;1767412;80;21081;-66
2022/08/24 03:32:42;;;;;;;30.02;5.53;;;;;;;;;;1776112;80;21031;-65
2022/08/24 03:35:11;;;;;;;27.55;5.22;;;;;;;;;;1771907;80;21003;-66
2022/08/24 03:37:38;;;;;;;22.52;5.75;;;;;;;;;;1771966;80;21514;-65
2022/08/24 03:40:07;;;;;;;24.35;5.50;;;;;;;;;;1772626;80;21092;-66
2022/08/24 03:42:36;;;;;;;20.00;4.80;;;;;;;;;;1750555;81;21075;-66
2022/08/24 03:45:04;;;;;;;27.40;5.65;;;;;;;;;;1774666;81;21039;-65
2022/08/24 03:47:32;;;;;;;20.05;5.40;;;;;;;;;;1769837;80;21030;-65
2022/08/24 03:49:59;;;;;;;23.80;5.60;;;;;;;;;;1775929;80;21003;-65
2022/08/24 03:52:26;;;;;;;22.85;4.50;;;;;;;;;;1776947;80;21577;-65
2022/08/24 03:54:53;;;;;;;31.35;5.40;;;;;;;;;;1781518;80;21019;-66
2022/08/24 03:57:22;;;;;;;23.57;5.12;;;;;;;;;;1776724;80;21479;-66
2022/08/24 03:59:49;;;;;;;18.20;4.90;;;;;;;;;;1781457;80;20995;-66
2022/08/24 04:02:16;;;;;;;26.75;5.70;;;;;;;;;;1770600;80;21047;-66
2022/08/24 04:04:42;;;;;;;24.98;6.58;;;;;;;;;;1777195;80;21090;-65
2022/08/24 04:07:10;;;;;;;24.52;7.55;;;;;;;;;;1777107;80;21026;-66
2022/08/24 04:09:37;;;;;;;27.17;10.35;;;;;;;;;;1772880;80;21055;-65
2022/08/24 04:12:06;;;;;;;37.83;11.95;;;;;;;;;;1773167;81;21058;-66
2022/08/24 04:14:33;;;;;;;28.62;11.63;;;;;;;;;;1771282;80;21034;-65
2022/08/24 04:17:03;;;;;;;45.45;20.32;;;;;;;;;;1778553;80;21031;-66
2022/08/24 04:19:33;;;;;;;35.03;14.60;;;;;;;;;;1772379;80;21014;-65
2022/08/24 04:22:01;;;;;;;24.00;9.13;;;;;;;;;;1781617;80;21011;-65
2022/08/24 04:24:30;;;;;;;36.45;11.55;;;;;;;;;;1768734;80;21015;-65
2022/08/24 04:26:58;;;;;;;25.80;10.38;;;;;;;;;;1776750;80;21003;-65
2022/08/24 04:29:26;;;;;;;33.95;12.13;;;;;;;;;;1779102;80;21019;-66
2022/08/24 04:31:53;;;;;;;36.00;12.68;;;;;;;;;;1777258;79;21511;-66
2022/08/24 04:34:20;;;;;;;55.73;27.13;;;;;;;;;;1775960;80;21038;-66
2022/08/24 04:36:49;;;;;;;34.70;15.53;;;;;;;;;;1779885;80;20999;-66
2022/08/24 04:39:15;;;;;;;29.00;12.55;;;;;;;;;;1778895;80;21046;-65
2022/08/24 04:41:51;;;;;;;41.83;18.50;;;;;;;;;;1781470;80;21030;-66
2022/08/24 04:44:20;;;;;;;64.87;35.00;;;;;;;;;;1781955;80;21030;-66
2022/08/24 04:46:47;;;;;;;53.95;25.55;;;;;;;;;;1771979;80;21038;-66
2022/08/24 04:49:14;;;;;;;52.53;28.07;;;;;;;;;;1783059;80;21452;-66
2022/08/24 04:51:41;;;;;;;60.92;32.55;;;;;;;;;;1780936;80;21479;-66
2022/08/24 04:54:08;;;;;;;94.07;50.67;;;;;;;;;;1771329;80;21003;-66
2022/08/24 04:56:36;;;;;;;93.80;53.65;;;;;;;;;;1779904;80;21091;-66
2022/08/24 04:59:04;;;;;;;57.85;32.08;;;;;;;;;;1775357;80;21078;-66
2022/08/24 05:01:34;;;;;;;50.08;26.10;;;;;;;;;;1771688;80;21066;-66
2022/08/24 05:04:03;;;;;;;54.85;28.02;;;;;;;;;;1776464;79;21467;-66
2022/08/24 05:06:33;;;;;;;67.90;36.08;;;;;;;;;;1784420;80;21022;-65
2022/08/24 05:09:03;;;;;;;49.65;27.30;;;;;;;;;;1776269;80;21058;-65
2022/08/24 05:11:30;;;;;;;40.28;20.05;;;;;;;;;;1769941;80;21081;-65
2022/08/24 05:13:58;;;;;;;42.53;21.27;;;;;;;;;;1775424;80;21062;-66
2022/08/24 05:16:27;;;;;;;96.32;50.50;;;;;;;;;;1782326;80;21041;-66
2022/08/24 05:18:55;;;;;;;84.32;44.27;;;;;;;;;;1773560;80;21070;-66
2022/08/24 05:21:23;;;;;;;101.62;57.38;;;;;;;;;;1772315;80;21503;-65
2022/08/24 05:23:50;;;;;;;73.05;37.00;;;;;;;;;;1781582;80;21007;-66
2022/08/24 05:26:23;;;;;;;40.45;16.93;;;;;;;;;;1772317;80;21207;-66
2022/08/24 05:28:49;;;;;;;44.95;22.58;;;;;;;;;;1752883;80;21030;-66
2022/08/24 05:31:21;;;;;;;67.62;36.42;;;;;;;;;;1772812;79;21043;-66
2022/08/24 05:33:49;;;;;;;65.47;37.28;;;;;;;;;;1771153;80;21022;-66
2022/08/24 05:36:22;;;;;;;70.78;38.45;;;;;;;;;;1777190;80;21003;-65
2022/08/24 05:38:51;;;;;;;52.93;25.60;;;;;;;;;;1773398;80;21031;-66
2022/08/24 05:41:19;;;;;;;39.70;18.87;;;;;;;;;;1776942;80;21050;-66
2022/08/24 05:43:46;;;;;;;31.97;8.83;;;;;;;;;;1771380;80;21554;-66
2022/08/24 05:46:14;;;;;;;30.32;11.18;;;;;;;;;;1775252;80;21022;-66
2022/08/24 05:48:42;;;;;;;34.58;16.30;;;;;;;;;;1774172;80;21074;-66
2022/08/24 05:51:10;;;;;;;23.12;10.28;;;;;;;;;;1775018;80;21523;-66
2022/08/24 05:53:40;;;;;;;34.83;17.15;;;;;;;;;;1781452;80;21078;-66
2022/08/24 05:56:10;;;;;;;28.52;12.03;;;;;;;;;;1771819;80;21031;-66
2022/08/24 05:58:38;;;;;;;28.98;13.98;;;;;;;;;;1770345;80;21487;-66
2022/08/24 06:01:12;;;;;;;42.25;22.30;;;;;;;;;;1768642;80;21510;-66
2022/08/24 06:03:40;;;;;;;82.47;37.08;;;;;;;;;;1777219;80;21033;-66
2022/08/24 06:06:08;;;;;;;33.35;19.05;;;;;;;;;;1775008;79;21531;-66
2022/08/24 06:08:40;;;;;;;55.75;34.60;;;;;;;;;;1762889;80;21538;-67
2022/08/24 06:11:07;;;;;;;38.48;17.95;;;;;;;;;;1759416;80;21040;-66
2022/08/24 06:13:36;;;;;;;45.03;26.77;;;;;;;;;;1764954;80;20997;-66
2022/08/24 06:16:10;;;;;;;38.85;22.25;;;;;;;;;;1766707;80;21058;-66
2022/08/24 06:18:38;;;;;;;38.83;19.17;;;;;;;;;;1767214;80;21502;-66
2022/08/24 06:21:09;;;;;;;34.88;16.20;;;;;;;;;;1771952;80;21058;-67
2022/08/24 06:23:38;;;;;;;21.57;8.95;;;;;;;;;;1743064;80;21024;-68
2022/08/24 06:28:52;;;;;;;27.07;12.73;;;;;;;;;;1769619;80;21091;-67
2022/08/24 06:31:21;;;;;;;39.33;15.30;;;;;;;;;;1766093;80;20995;-67
2022/08/24 06:33:48;;;;;;;27.30;12.45;;;;;;;;;;1782932;80;21027;-67
2022/08/24 06:36:14;;;;;;;36.75;12.70;;;;;;;;;;1765051;79;21050;-67
2022/08/24 06:38:42;;;;;;;19.90;8.18;;;;;;;;;;1728810;81;21497;-67
2022/08/24 06:41:10;;;;;;;31.93;14.93;;;;;;;;;;1753784;80;21000;-68
2022/08/24 06:43:38;;;;;;;41.37;12.85;;;;;;;;;;1767210;80;21059;-67
2022/08/24 06:46:13;;;;;;;30.70;15.53;;;;;;;;;;1760267;80;21533;-67
2022/08/24 06:48:41;;;;;;;24.87;10.88;;;;;;;;;;1769626;80;21014;-66
2022/08/24 06:51:15;;;;;;;29.48;10.55;;;;;;;;;;1778522;80;21506;-67
2022/08/24 06:53:42;;;;;;;;;;;;;;;;;;1725653;82;21008;-66
2022/08/24 06:56:11;;;;;;;29.65;16.30;;;;;;;;;;1775685;80;20089;-68
2022/08/24 06:58:38;;;;;;;25.55;11.85;;;;;;;;;;1773623;80;21011;-66
2022/08/24 07:01:13;;;;;;;18.62;7.05;;;;;;;;;;1770339;80;21070;-67
2022/08/24 07:03:40;;;;;;;13.83;5.55;;;;;;;;;;1762170;80;21020;-66
2022/08/24 07:06:13;;;;;;;13.72;5.90;;;;;;;;;;1755447;80;21090;-66
2022/08/24 07:08:42;;;;;;;24.92;12.45;;;;;;;;;;1790709;79;21746;-67
2022/08/24 07:11:11;;;;;;;14.93;7.95;;;;;;;;;;1761775;80;21070;-66
2022/08/24 07:13:39;;;;;;;24.05;10.98;;;;;;;;;;1745560;80;21047;-66
2022/08/24 07:16:08;;;;;;;13.65;5.20;;;;;;;;;;1768992;80;21046;-66
2022/08/24 07:18:36;;;;;;;14.30;6.85;;;;;;;;;;1776368;80;21075;-67
2022/08/24 07:21:04;;;;;;;14.80;6.33;;;;;;;;;;1775310;80;21582;-67
2022/08/24 07:23:45;;;;;;;17.67;7.10;;;;;;;;;;1775271;80;21503;-67
2022/08/24 07:26:19;;;;;;;14.65;5.78;;;;;;;;;;1775059;80;21007;-67
2022/08/24 07:28:45;;;;;;;19.52;5.30;;;;;;;;;;1777301;80;21027;-67
2022/08/24 07:31:12;;;;;;;23.00;6.03;;;;;;;;;;1775541;80;20992;-67
2022/08/24 07:33:44;;;;;;;20.10;4.65;;;;;;;;;;1781670;80;21538;-67
2022/08/24 07:36:11;;;;;;;11.63;4.42;;;;;;;;;;1780238;80;21577;-67
2022/08/24 07:38:38;;;;;;;12.25;4.08;;;;;;;;;;1776955;80;21146;-67
2022/08/24 07:41:06;;;;;;;16.70;5.25;;;;;;;;;;1775808;80;21487;-67
2022/08/24 07:43:33;;;;;;;15.58;5.10;;;;;;;;;;1776099;80;21582;-67
2022/08/24 07:46:00;;;;;;;12.33;4.62;;;;;;;;;;1777729;80;21035;-67
2022/08/24 07:48:27;;;;;;;12.63;4.20;;;;;;;;;;1776617;80;21027;-67
2022/08/24 07:50:57;;;;;;;12.82;4.12;;;;;;;;;;1775061;80;21027;-67
2022/08/24 07:53:24;;;;;;;11.90;4.20;;;;;;;;;;1775017;80;21019;-67
2022/08/24 07:55:54;;;;;;;7.53;3.95;;;;;;;;;;1776771;80;21039;-67
2022/08/24 07:58:21;;;;;;;14.23;3.92;;;;;;;;;;1775733;80;21027;-67
2022/08/24 08:00:48;;;;;;;9.95;4.45;;;;;;;;;;1776828;80;21078;-67
2022/08/24 08:03:16;;;;;;;12.40;5.10;;;;;;;;;;1777637;80;21074;-67
2022/08/24 08:05:44;;;;;;;11.68;4.97;;;;;;;;;;1776134;80;21110;-67
2022/08/24 08:08:12;;;;;;;10.00;3.87;;;;;;;;;;1776228;80;21471;-67
2022/08/24 08:10:39;;;;;;;13.32;4.85;;;;;;;;;;1773266;79;21042;-68
2022/08/24 08:13:08;;;;;;;12.30;4.37;;;;;;;;;;1774902;80;21000;-67
2022/08/24 08:15:35;;;;;;;12.98;4.12;;;;;;;;;;1775319;80;21026;-67
2022/08/24 08:18:04;;;;;;;10.20;4.00;;;;;;;;;;1776854;80;21009;-67
2022/08/24 08:20:31;;;;;;;11.03;3.72;;;;;;;;;;1777032;80;21062;-67
2022/08/24 08:25:53;;;;;;;9.40;4.20;;;;;;;;;;1776200;80;21026;-68
2022/08/24 08:28:23;;;;;;;13.88;4.12;;;;;;;;;;1775816;80;21562;-68
2022/08/24 08:30:52;;;;;;;10.72;3.60;;;;;;;;;;1776295;80;21078;-67
2022/08/24 08:33:19;;;;;;;10.13;3.90;;;;;;;;;;1775902;80;21011;-67
2022/08/24 08:35:46;;;;;;;11.20;3.58;;;;;;;;;;1776737;80;21039;-67
2022/08/24 08:38:14;;;;;;;9.88;3.80;;;;;;;;;;1777073;81;21016;-67
2022/08/24 08:40:59;;;;;;;8.53;3.67;;;;;;;;;;1777335;80;21137;-67
2022/08/24 08:43:54;;;;;;;13.43;3.92;;;;;;;;;;1769381;80;21071;-67
2022/08/24 08:46:49;;;;;;;9.55;4.05;;;;;;;;;;1770282;80;20996;-68
2022/08/24 08:49:47;;;;;;;7.80;3.42;;;;;;;;;;1766673;80;21107;-67
2022/08/24 08:52:50;;;;;;;15.80;4.17;;;;;;;;;;1776611;80;22377;-67
2022/08/24 08:55:45;;;;;;;9.98;3.90;;;;;;;;;;1774115;80;21036;-67
2022/08/24 08:58:33;;;;;;;12.63;3.70;;;;;;;;;;1753699;80;21066;-67
2022/08/24 09:01:06;;;;;;;12.05;3.12;;;;;;;;;;1775867;80;21043;-67
2022/08/24 09:03:52;;;;;;;9.28;3.47;;;;;;;;;;1778292;80;21058;-67
2022/08/24 09:07:07;;;;;;;9.68;3.20;;;;;;;;;;1773620;80;21164;-67
2022/08/24 09:09:39;;;;;;;8.63;2.90;;;;;;;;;;1777628;80;21543;-67
2022/08/24 09:12:26;;;;;;;7.65;2.90;;;;;;;;;;1780029;80;21608;-67
2022/08/24 09:15:08;;;;;;;9.13;3.50;;;;;;;;;;1777161;80;21007;-67
2022/08/24 12:00:21;;;;;;;21.05;13.15;;;;;;;32.59;32.74;100999.26;1903075;74;22513;-68
2022/08/24 12:20:12;;;;;;;14.10;6.72;;;;;;;32.43;32.62;100979.09;1824645;77;22735;-65
2022/08/24 12:22:41;;;;;;;24.40;10.40;;;;;;;32.72;32.24;100977.13;1796645;79;21024;-66
2022/08/24 12:26:00;;;;;;;17.70;8.73;;;;;;;32.96;32.52;100998.91;1796063;79;21016;-66
2022/08/24 12:27:40;;;;;;;21.87;12.55;;;;;;;32.92;33.07;101001.97;1789453;79;21020;-66
2022/08/24 12:30:16;;;;;;;18.85;10.65;;;;;;;32.90;32.50;100996.54;1724736;82;21011;-68
2022/08/24 12:33:04;;;;;;;13.15;6.60;;;;;;;33.00;33.33;100992.95;1738719;81;21073;-68
2022/08/24 12:35:49;;;;;;;15.10;9.00;;;;;;;32.89;33.75;100998.91;1734792;81;21109;-68
2022/08/24 12:38:27;;;;;;;19.45;10.58;;;;;;;-143.66;100.00;114090.72;1774041;79;21553;-68
2022/08/24 13:26:40;;;;;;;8.78;3.92;;;;;;;;;;1821682;77;22241;-68
2022/08/24 13:29:07;;;;;;;14.23;4.30;;;;;;;;;;1813825;78;21062;-68
2022/08/24 13:31:41;;;;;;;13.43;3.95;;;;;;;;;;1819430;78;21027;-68
2022/08/24 13:36:46;;;;;;;13.10;3.98;;;;;;;-143.66;100.00;114090.72;1812267;79;22306;-68
